This is the latest recevied weather packets stored in our database for station/object HK6REC-20. If no packets are shown the sender has not sent any weather packets the latest 10 day(s).
| Time | Temp. | Humidity | Pressure | Rain* | Wind** | Luminosity | Snow |
|---|---|---|---|---|---|---|---|
| 1777711914 | 15° C | 88% | 1014 hPa | 0 mm | - | - | - |
| 1777710713 | 15.56° C | 88% | 1015 hPa | 0 mm | - | - | - |
| 1777709512 | 15.56° C | 88% | 1015 hPa | 0 mm | - | - | - |
| 1777708311 | 15.56° C | 88% | 1014 hPa | 0 mm | - | - | - |
| 1777707110 | 15.56° C | 88% | 1015 hPa | 0 mm | - | - | - |
| 1777705909 | 15.56° C | 88% | 1015 hPa | 0 mm | - | - | - |
| 1777704709 | 15.56° C | 88% | 1014 hPa | 0 mm | - | - | - |
| 1777702307 | 15.56° C | 88% | 1015 hPa | 0 mm | - | - | - |
| 1777701106 | 15.56° C | 88% | 1015 hPa | 0 mm | - | - | - |
| 1777699905 | 15.56° C | 88% | 1015 hPa | 0 mm | - | - | - |
| 1777698704 | 15.56° C | 88% | 1016 hPa | 0 mm | - | - | - |
| 1777697503 | 15.56° C | 88% | 1015 hPa | 0 mm | - | - | - |
| 1777696302 | 15.56° C | 88% | 1015 hPa | 0 mm | - | - | - |
| 1777695101 | 20° C | 81% | 1015 hPa | 0 mm | - | - | - |
| 1777693900 | 19.44° C | 80% | 1015 hPa | 0 mm | - | - | - |
| 1777692699 | 17.78° C | 81% | 1016 hPa | 0 mm | - | - | - |
| 1777691498 | 20.56° C | 80% | 1016 hPa | 0 mm | - | - | - |
| 1777690297 | 20° C | 81% | 1015 hPa | 0 mm | - | - | - |
| 1777689097 | 18.89° C | 83% | 1015 hPa | 0 mm | - | - | - |
| 1777686693 | 17.22° C | 87% | 1014 hPa | 0 mm | - | - | - |
| 1777685492 | 22.22° C | 83% | 1014 hPa | 0 mm | - | - | - |
| 1777684291 | 22.22° C | 83% | 1014 hPa | 0 mm | - | - | - |
| 1777683090 | 22.22° C | 88% | 1013 hPa | 0 mm | - | - | - |
| 1777681868 | 22.22° C | 88% | 1014 hPa | 0 mm | - | - | - |
* Rain latest hour (hover to see other rain measurements)
** Current wind speed in m/s (hover to see current wind gust speed)